Valles Mines, Missouri
Current Conditions -  °F | °C
As of 1:55 AM on Saturday 01 Nov 2014 (Local Time) from KFAM Reporting Station
Clear Clear  
Wind Chill: 26°   Ceiling: Unl
Heat Index: 32°   Visibility: 10mi
Dew Point: 19°   Wind: 7mph
Humidity: 60%   Direction: 310°NW
Pressure: 30.38"   Gusts: NA
Location:  38.04°N, 90.5°W
Report Text: KFAM 010655Z AUTO 31006KT 10SM CLR 00/M07 A3038 RMK AO1
Loading
Personal Weather Stations






























Interactive Weather Map
Tropical Storm Tracking
New forecast layout! Learn more

10-Day Weather Forecast

Advertisements
Track Severe Weather on mobile